KLCK/LCK METAR and TAF weather

Enter ICAO airport designator
Station Type Date Time Source
KLCK METAR 2020/01/26 18:55 UTC NOAA

KLCK 261855Z AUTO 24014G19KT 10SM OVC012 01/M01 A2993 RMK AO2 T00071009


Station Type Date Time Source
KLCK Decoded METAR 2020/01/26 18:55 UTC NOAA

Rickenbacker Air National Guard Base, OH, United States (KLCK) 39-49N 082-56W
Jan 26, 2020 - 01:55 PM EST / 2020.01.26 1855 UTC
Wind: from the WSW (240 degrees) at 16 MPH (14 KT) gusting to 22 MPH (19 KT):0
Visibility: 10 mile(s):0
Sky conditions: overcast
Temperature: 33.3 F (0.7 C)
Windchill: 23 F (-5 C):1
Dew Point: 30.4 F (-0.9 C)
Relative Humidity: 89%
Pressure (altimeter): 29.93 in. Hg (1013 hPa)
ob: KLCK 261855Z AUTO 24014G19KT 10SM OVC012 01/M01 A2993 RMK AO2 T00071009
cycle: 19

Station Type Date Time Source
KLCK TAF 2020/01/26 18:41 UTC NOAA

TAF KLCK 261733Z 2618/2718 25012KT P6SM OVC012
FM270500 27006KT P6SM OVC013
FM271100 28005KT 5SM BR OVC009
FM271600 29006KT P6SM OVC012

Example: see airport list